sensor_id;sensor_type;location;lat;lon;timestamp;temperature;humidity
71039;SHT30;58692;43.212;27.908;2023-04-16T00:00:25;14.13;83.59
71039;SHT30;58692;43.212;27.908;2023-04-16T00:02:52;14.16;83.45
71039;SHT30;58692;43.212;27.908;2023-04-16T00:05:18;14.09;83.63
71039;SHT30;58692;43.212;27.908;2023-04-16T00:07:43;14.16;83.43
71039;SHT30;58692;43.212;27.908;2023-04-16T00:10:08;14.26;83.32
71039;SHT30;58692;43.212;27.908;2023-04-16T00:12:34;14.27;83.18
71039;SHT30;58692;43.212;27.908;2023-04-16T00:15:00;14.24;83.23
71039;SHT30;58692;43.212;27.908;2023-04-16T00:17:26;14.21;83.43
71039;SHT30;58692;43.212;27.908;2023-04-16T00:19:51;14.18;83.46
71039;SHT30;58692;43.212;27.908;2023-04-16T00:22:17;14.17;83.60
71039;SHT30;58692;43.212;27.908;2023-04-16T00:24:42;14.09;83.69
71039;SHT30;58692;43.212;27.908;2023-04-16T00:27:08;14.07;83.82
71039;SHT30;58692;43.212;27.908;2023-04-16T00:29:33;14.00;84.07
71039;SHT30;58692;43.212;27.908;2023-04-16T00:31:59;14.05;83.93
71039;SHT30;58692;43.212;27.908;2023-04-16T00:34:25;14.03;84.11
71039;SHT30;58692;43.212;27.908;2023-04-16T00:36:50;14.02;83.94
71039;SHT30;58692;43.212;27.908;2023-04-16T00:39:16;13.95;84.18
71039;SHT30;58692;43.212;27.908;2023-04-16T00:41:42;13.95;84.25
71039;SHT30;58692;43.212;27.908;2023-04-16T00:44:07;13.87;84.28
71039;SHT30;58692;43.212;27.908;2023-04-16T00:46:34;13.86;84.44
71039;SHT30;58692;43.212;27.908;2023-04-16T00:49:01;13.82;84.51
71039;SHT30;58692;43.212;27.908;2023-04-16T00:51:27;13.77;84.68
71039;SHT30;58692;43.212;27.908;2023-04-16T00:53:53;13.85;84.70
71039;SHT30;58692;43.212;27.908;2023-04-16T00:56:19;13.90;84.40
71039;SHT30;58692;43.212;27.908;2023-04-16T00:58:46;13.93;84.23
71039;SHT30;58692;43.212;27.908;2023-04-16T01:01:12;13.97;84.07
71039;SHT30;58692;43.212;27.908;2023-04-16T01:03:47;14.06;83.88
71039;SHT30;58692;43.212;27.908;2023-04-16T01:06:14;14.06;83.77
71039;SHT30;58692;43.212;27.908;2023-04-16T01:08:40;14.00;83.93
71039;SHT30;58692;43.212;27.908;2023-04-16T01:11:06;14.02;83.95
71039;SHT30;58692;43.212;27.908;2023-04-16T01:13:32;13.99;83.93
71039;SHT30;58692;43.212;27.908;2023-04-16T01:15:58;14.05;83.99
71039;SHT30;58692;43.212;27.908;2023-04-16T01:18:25;13.99;83.94
71039;SHT30;58692;43.212;27.908;2023-04-16T01:20:51;14.05;83.83
71039;SHT30;58692;43.212;27.908;2023-04-16T01:23:17;14.07;83.71
71039;SHT30;58692;43.212;27.908;2023-04-16T01:25:44;14.16;83.49
71039;SHT30;58692;43.212;27.908;2023-04-16T01:28:09;14.07;83.65
71039;SHT30;58692;43.212;27.908;2023-04-16T01:30:35;14.07;83.67
71039;SHT30;58692;43.212;27.908;2023-04-16T01:33:01;14.07;83.74
71039;SHT30;58692;43.212;27.908;2023-04-16T01:35:26;14.14;83.54
71039;SHT30;58692;43.212;27.908;2023-04-16T01:37:52;14.18;83.43
71039;SHT30;58692;43.212;27.908;2023-04-16T01:40:18;14.18;83.35
71039;SHT30;58692;43.212;27.908;2023-04-16T01:42:43;14.24;83.27
71039;SHT30;58692;43.212;27.908;2023-04-16T01:45:09;14.31;83.01
71039;SHT30;58692;43.212;27.908;2023-04-16T01:47:35;14.40;82.91
71039;SHT30;58692;43.212;27.908;2023-04-16T01:50:01;14.41;82.70
71039;SHT30;58692;43.212;27.908;2023-04-16T01:52:27;14.36;82.70
71039;SHT30;58692;43.212;27.908;2023-04-16T01:54:53;14.27;83.12
71039;SHT30;58692;43.212;27.908;2023-04-16T01:57:18;14.24;83.20
71039;SHT30;58692;43.212;27.908;2023-04-16T01:59:43;14.13;83.43
71039;SHT30;58692;43.212;27.908;2023-04-16T02:02:10;14.09;83.73
71039;SHT30;58692;43.212;27.908;2023-04-16T02:04:37;14.14;83.48
71039;SHT30;58692;43.212;27.908;2023-04-16T02:07:04;14.13;83.54
71039;SHT30;58692;43.212;27.908;2023-04-16T02:09:30;14.07;83.55
71039;SHT30;58692;43.212;27.908;2023-04-16T02:11:56;14.12;83.45
71039;SHT30;58692;43.212;27.908;2023-04-16T02:14:21;14.14;83.42
71039;SHT30;58692;43.212;27.908;2023-04-16T02:16:50;14.14;83.39
71039;SHT30;58692;43.212;27.908;2023-04-16T02:19:16;14.06;83.59
71039;SHT30;58692;43.212;27.908;2023-04-16T02:21:42;14.00;83.66
71039;SHT30;58692;43.212;27.908;2023-04-16T02:24:07;13.95;83.72
71039;SHT30;58692;43.212;27.908;2023-04-16T02:26:33;13.93;83.75
71039;SHT30;58692;43.212;27.908;2023-04-16T02:28:58;13.96;83.74
71039;SHT30;58692;43.212;27.908;2023-04-16T02:31:24;13.97;83.72
71039;SHT30;58692;43.212;27.908;2023-04-16T02:33:50;14.00;83.66
71039;SHT30;58692;43.212;27.908;2023-04-16T02:36:15;14.02;83.57
71039;SHT30;58692;43.212;27.908;2023-04-16T02:38:41;14.07;83.45
71039;SHT30;58692;43.212;27.908;2023-04-16T02:41:06;14.13;83.20
71039;SHT30;58692;43.212;27.908;2023-04-16T02:43:32;14.17;82.95
71039;SHT30;58692;43.212;27.908;2023-04-16T02:45:57;14.21;82.83
71039;SHT30;58692;43.212;27.908;2023-04-16T02:48:23;14.26;82.80
71039;SHT30;58692;43.212;27.908;2023-04-16T02:50:49;14.27;82.69
71039;SHT30;58692;43.212;27.908;2023-04-16T02:53:15;14.33;82.50
71039;SHT30;58692;43.212;27.908;2023-04-16T02:55:40;14.36;82.60
71039;SHT30;58692;43.212;27.908;2023-04-16T02:58:06;14.38;82.40
71039;SHT30;58692;43.212;27.908;2023-04-16T03:00:31;14.40;82.27
71039;SHT30;58692;43.212;27.908;2023-04-16T03:02:57;14.34;82.42
71039;SHT30;58692;43.212;27.908;2023-04-16T03:05:22;14.38;82.40
71039;SHT30;58692;43.212;27.908;2023-04-16T03:07:48;14.45;82.34
71039;SHT30;58692;43.212;27.908;2023-04-16T03:10:14;14.30;82.73
71039;SHT30;58692;43.212;27.908;2023-04-16T03:12:40;14.23;82.89
71039;SHT30;58692;43.212;27.908;2023-04-16T03:15:06;14.28;82.84
71039;SHT30;58692;43.212;27.908;2023-04-16T03:17:32;14.28;82.87
71039;SHT30;58692;43.212;27.908;2023-04-16T03:19:57;14.07;83.42
71039;SHT30;58692;43.212;27.908;2023-04-16T03:22:23;14.09;83.52
71039;SHT30;58692;43.212;27.908;2023-04-16T03:24:48;13.99;83.75
71039;SHT30;58692;43.212;27.908;2023-04-16T03:27:14;14.06;83.67
71039;SHT30;58692;43.212;27.908;2023-04-16T03:29:39;14.00;83.74
71039;SHT30;58692;43.212;27.908;2023-04-16T03:32:05;14.10;83.53
71039;SHT30;58692;43.212;27.908;2023-04-16T03:34:31;14.07;83.56
71039;SHT30;58692;43.212;27.908;2023-04-16T03:36:56;14.14;83.30
71039;SHT30;58692;43.212;27.908;2023-04-16T03:39:22;14.09;83.42
71039;SHT30;58692;43.212;27.908;2023-04-16T03:41:50;14.09;83.50
71039;SHT30;58692;43.212;27.908;2023-04-16T03:44:16;14.10;83.57
71039;SHT30;58692;43.212;27.908;2023-04-16T03:46:41;14.14;83.49
71039;SHT30;58692;43.212;27.908;2023-04-16T03:49:07;14.20;83.24
71039;SHT30;58692;43.212;27.908;2023-04-16T03:51:32;14.27;83.20
71039;SHT30;58692;43.212;27.908;2023-04-16T03:53:57;14.28;83.03
71039;SHT30;58692;43.212;27.908;2023-04-16T03:56:23;14.40;82.76
71039;SHT30;58692;43.212;27.908;2023-04-16T03:58:48;14.47;82.44
71039;SHT30;58692;43.212;27.908;2023-04-16T04:01:14;14.47;82.23
71039;SHT30;58692;43.212;27.908;2023-04-16T04:03:39;14.47;82.27
71039;SHT30;58692;43.212;27.908;2023-04-16T04:06:07;14.44;82.49
71039;SHT30;58692;43.212;27.908;2023-04-16T04:08:32;14.52;82.48
71039;SHT30;58692;43.212;27.908;2023-04-16T04:10:58;14.60;82.26
71039;SHT30;58692;43.212;27.908;2023-04-16T04:13:23;14.52;82.26
71039;SHT30;58692;43.212;27.908;2023-04-16T04:15:49;14.51;82.26
71039;SHT30;58692;43.212;27.908;2023-04-16T04:18:15;14.54;82.31
71039;SHT30;58692;43.212;27.908;2023-04-16T04:20:40;14.45;82.59
71039;SHT30;58692;43.212;27.908;2023-04-16T04:23:06;14.57;82.54
71039;SHT30;58692;43.212;27.908;2023-04-16T04:25:31;14.67;82.17
71039;SHT30;58692;43.212;27.908;2023-04-16T04:27:56;14.67;82.46
71039;SHT30;58692;43.212;27.908;2023-04-16T04:30:22;14.79;82.10
71039;SHT30;58692;43.212;27.908;2023-04-16T04:32:47;14.93;81.69
71039;SHT30;58692;43.212;27.908;2023-04-16T04:35:13;15.02;81.31
71039;SHT30;58692;43.212;27.908;2023-04-16T04:37:38;15.03;81.27
71039;SHT30;58692;43.212;27.908;2023-04-16T04:40:04;15.22;81.11
71039;SHT30;58692;43.212;27.908;2023-04-16T04:42:30;15.29;80.86
71039;SHT30;58692;43.212;27.908;2023-04-16T04:44:55;15.42;80.38
71039;SHT30;58692;43.212;27.908;2023-04-16T04:47:21;15.50;80.00
71039;SHT30;58692;43.212;27.908;2023-04-16T04:49:46;15.66;79.58
71039;SHT30;58692;43.212;27.908;2023-04-16T04:52:12;15.84;79.16
71039;SHT30;58692;43.212;27.908;2023-04-16T04:54:38;15.91;79.09
71039;SHT30;58692;43.212;27.908;2023-04-16T04:57:06;15.94;78.76
71039;SHT30;58692;43.212;27.908;2023-04-16T04:59:32;16.31;77.87
71039;SHT30;58692;43.212;27.908;2023-04-16T05:01:58;16.61;76.60
71039;SHT30;58692;43.212;27.908;2023-04-16T05:04:24;16.75;76.05
71039;SHT30;58692;43.212;27.908;2023-04-16T05:06:49;16.76;76.11
71039;SHT30;58692;43.212;27.908;2023-04-16T05:09:15;16.78;76.27
71039;SHT30;58692;43.212;27.908;2023-04-16T05:11:41;16.89;76.13
71039;SHT30;58692;43.212;27.908;2023-04-16T05:14:07;16.78;76.49
71039;SHT30;58692;43.212;27.908;2023-04-16T05:16:35;16.76;76.90
71039;SHT30;58692;43.212;27.908;2023-04-16T05:19:01;16.58;77.04
71039;SHT30;58692;43.212;27.908;2023-04-16T05:21:26;16.51;77.11
71039;SHT30;58692;43.212;27.908;2023-04-16T05:23:52;16.38;77.60
71039;SHT30;58692;43.212;27.908;2023-04-16T05:26:17;16.41;77.41
71039;SHT30;58692;43.212;27.908;2023-04-16T05:28:43;16.21;77.74
71039;SHT30;58692;43.212;27.908;2023-04-16T05:31:08;16.45;77.37
71039;SHT30;58692;43.212;27.908;2023-04-16T05:33:34;16.38;77.43
71039;SHT30;58692;43.212;27.908;2023-04-16T05:35:59;16.58;77.04
71039;SHT30;58692;43.212;27.908;2023-04-16T05:38:25;16.76;76.61
71039;SHT30;58692;43.212;27.908;2023-04-16T05:40:50;16.68;77.03
71039;SHT30;58692;43.212;27.908;2023-04-16T05:43:16;16.85;76.46
71039;SHT30;58692;43.212;27.908;2023-04-16T05:45:42;16.99;75.91
71039;SHT30;58692;43.212;27.908;2023-04-16T05:48:07;17.07;75.74
71039;SHT30;58692;43.212;27.908;2023-04-16T05:50:33;17.34;74.94
71039;SHT30;58692;43.212;27.908;2023-04-16T05:53:00;18.00;73.27
71039;SHT30;58692;43.212;27.908;2023-04-16T05:55:26;18.06;72.49
71039;SHT30;58692;43.212;27.908;2023-04-16T05:57:51;17.85;73.19
71039;SHT30;58692;43.212;27.908;2023-04-16T06:00:17;17.70;73.66
71039;SHT30;58692;43.212;27.908;2023-04-16T06:02:42;17.37;74.51
71039;SHT30;58692;43.212;27.908;2023-04-16T06:05:08;17.15;75.67
71039;SHT30;58692;43.212;27.908;2023-04-16T06:07:33;16.95;76.16
71039;SHT30;58692;43.212;27.908;2023-04-16T06:09:59;16.88;76.34
71039;SHT30;58692;43.212;27.908;2023-04-16T06:12:24;17.03;76.17
71039;SHT30;58692;43.212;27.908;2023-04-16T06:14:50;17.90;73.78
71039;SHT30;58692;43.212;27.908;2023-04-16T06:17:15;18.32;72.42
71039;SHT30;58692;43.212;27.908;2023-04-16T06:19:41;18.43;71.86
71039;SHT30;58692;43.212;27.908;2023-04-16T06:22:06;17.95;72.67
71039;SHT30;58692;43.212;27.908;2023-04-16T06:24:32;18.33;71.98
71039;SHT30;58692;43.212;27.908;2023-04-16T06:26:57;19.07;69.83
71039;SHT30;58692;43.212;27.908;2023-04-16T06:29:23;19.61;68.00
71039;SHT30;58692;43.212;27.908;2023-04-16T06:31:48;20.02;66.68
71039;SHT30;58692;43.212;27.908;2023-04-16T06:34:14;20.46;64.33
71039;SHT30;58692;43.212;27.908;2023-04-16T06:36:40;20.34;64.30
71039;SHT30;58692;43.212;27.908;2023-04-16T06:39:06;20.44;63.74
71039;SHT30;58692;43.212;27.908;2023-04-16T06:41:31;21.17;62.51
71039;SHT30;58692;43.212;27.908;2023-04-16T06:43:57;21.00;62.17
71039;SHT30;58692;43.212;27.908;2023-04-16T06:46:22;20.44;63.28
71039;SHT30;58692;43.212;27.908;2023-04-16T06:48:48;20.73;63.03
71039;SHT30;58692;43.212;27.908;2023-04-16T06:51:13;21.63;61.15
71039;SHT30;58692;43.212;27.908;2023-04-16T06:53:39;20.95;62.01
71039;SHT30;58692;43.212;27.908;2023-04-16T06:56:05;20.22;63.94
71039;SHT30;58692;43.212;27.908;2023-04-16T06:58:30;19.64;65.24
71039;SHT30;58692;43.212;27.908;2023-04-16T07:00:57;19.31;65.56
71039;SHT30;58692;43.212;27.908;2023-04-16T07:03:23;19.06;66.14
71039;SHT30;58692;43.212;27.908;2023-04-16T07:05:48;18.66;67.85
71039;SHT30;58692;43.212;27.908;2023-04-16T07:08:13;18.74;67.89
71039;SHT30;58692;43.212;27.908;2023-04-16T07:10:39;18.52;69.33
71039;SHT30;58692;43.212;27.908;2023-04-16T07:13:05;17.37;72.12
71039;SHT30;58692;43.212;27.908;2023-04-16T07:15:30;16.86;73.55
71039;SHT30;58692;43.212;27.908;2023-04-16T07:17:56;16.86;73.79
71039;SHT30;58692;43.212;27.908;2023-04-16T07:20:21;17.02;73.17
71039;SHT30;58692;43.212;27.908;2023-04-16T07:22:46;17.55;72.05
71039;SHT30;58692;43.212;27.908;2023-04-16T07:25:12;17.10;73.41
71039;SHT30;58692;43.212;27.908;2023-04-16T07:27:37;16.93;74.40
71039;SHT30;58692;43.212;27.908;2023-04-16T07:30:03;17.75;72.22
71039;SHT30;58692;43.212;27.908;2023-04-16T07:32:29;18.29;70.31
71039;SHT30;58692;43.212;27.908;2023-04-16T07:34:55;18.59;69.79
71039;SHT30;58692;43.212;27.908;2023-04-16T07:37:20;19.14;68.08
71039;SHT30;58692;43.212;27.908;2023-04-16T07:39:46;19.75;66.12
71039;SHT30;58692;43.212;27.908;2023-04-16T07:42:12;19.51;65.60
71039;SHT30;58692;43.212;27.908;2023-04-16T07:44:38;20.25;63.60
71039;SHT30;58692;43.212;27.908;2023-04-16T07:47:03;20.06;63.54
71039;SHT30;58692;43.212;27.908;2023-04-16T07:49:29;20.34;61.76
71039;SHT30;58692;43.212;27.908;2023-04-16T07:51:55;20.87;60.76
71039;SHT30;58692;43.212;27.908;2023-04-16T07:54:20;20.90;60.74
71039;SHT30;58692;43.212;27.908;2023-04-16T07:56:45;20.74;61.30
71039;SHT30;58692;43.212;27.908;2023-04-16T07:59:11;21.03;60.59
71039;SHT30;58692;43.212;27.908;2023-04-16T08:01:36;20.93;60.76
71039;SHT30;58692;43.212;27.908;2023-04-16T08:04:02;21.12;60.22
71039;SHT30;58692;43.212;27.908;2023-04-16T08:06:27;21.22;60.14
71039;SHT30;58692;43.212;27.908;2023-04-16T08:08:53;21.34;60.05
71039;SHT30;58692;43.212;27.908;2023-04-16T08:11:18;21.82;58.62
71039;SHT30;58692;43.212;27.908;2023-04-16T08:13:44;21.89;57.90
71039;SHT30;58692;43.212;27.908;2023-04-16T08:16:10;22.17;57.07
71039;SHT30;58692;43.212;27.908;2023-04-16T08:18:35;21.71;57.01
71039;SHT30;58692;43.212;27.908;2023-04-16T08:21:01;21.39;58.26
71039;SHT30;58692;43.212;27.908;2023-04-16T08:23:27;21.62;58.12
71039;SHT30;58692;43.212;27.908;2023-04-16T08:25:53;21.86;57.83
71039;SHT30;58692;43.212;27.908;2023-04-16T08:28:18;21.08;59.93
71039;SHT30;58692;43.212;27.908;2023-04-16T08:30:44;20.67;60.96
71039;SHT30;58692;43.212;27.908;2023-04-16T08:33:10;20.80;61.03
71039;SHT30;58692;43.212;27.908;2023-04-16T08:35:38;20.70;61.31
71039;SHT30;58692;43.212;27.908;2023-04-16T08:38:03;20.80;61.64
71039;SHT30;58692;43.212;27.908;2023-04-16T08:40:30;21.34;60.31
71039;SHT30;58692;43.212;27.908;2023-04-16T08:42:58;21.97;58.61
71039;SHT30;58692;43.212;27.908;2023-04-16T08:45:25;21.58;59.34
71039;SHT30;58692;43.212;27.908;2023-04-16T08:47:51;22.02;58.08
71039;SHT30;58692;43.212;27.908;2023-04-16T08:50:22;22.46;56.74
71039;SHT30;58692;43.212;27.908;2023-04-16T08:52:52;21.41;60.13
71039;SHT30;58692;43.212;27.908;2023-04-16T08:55:21;22.21;57.76
71039;SHT30;58692;43.212;27.908;2023-04-16T08:57:50;22.47;56.50
71039;SHT30;58692;43.212;27.908;2023-04-16T09:00:18;23.53;54.27
71039;SHT30;58692;43.212;27.908;2023-04-16T09:02:44;23.74;53.40
71039;SHT30;58692;43.212;27.908;2023-04-16T09:05:13;23.46;54.23
71039;SHT30;58692;43.212;27.908;2023-04-16T09:07:43;24.20;52.46
71039;SHT30;58692;43.212;27.908;2023-04-16T09:10:09;23.28;53.85
71039;SHT30;58692;43.212;27.908;2023-04-16T09:12:34;22.41;55.47
71039;SHT30;58692;43.212;27.908;2023-04-16T09:15:01;22.91;53.67
71039;SHT30;58692;43.212;27.908;2023-04-16T09:17:27;23.59;52.16
71039;SHT30;58692;43.212;27.908;2023-04-16T09:19:53;22.95;53.27
71039;SHT30;58692;43.212;27.908;2023-04-16T09:22:19;22.72;54.46
71039;SHT30;58692;43.212;27.908;2023-04-16T09:24:45;23.08;54.41
71039;SHT30;58692;43.212;27.908;2023-04-16T09:27:11;22.33;56.61
71039;SHT30;58692;43.212;27.908;2023-04-16T09:29:39;21.62;58.03
71039;SHT30;58692;43.212;27.908;2023-04-16T09:32:06;21.15;58.94
71039;SHT30;58692;43.212;27.908;2023-04-16T09:34:33;20.34;60.76
71039;SHT30;58692;43.212;27.908;2023-04-16T09:37:14;19.98;61.65
71039;SHT30;58692;43.212;27.908;2023-04-16T09:39:42;20.10;60.70
71039;SHT30;58692;43.212;27.908;2023-04-16T09:42:07;19.86;60.54
71039;SHT30;58692;43.212;27.908;2023-04-16T09:44:37;20.39;59.72
71039;SHT30;58692;43.212;27.908;2023-04-16T09:47:07;20.05;60.21
71039;SHT30;58692;43.212;27.908;2023-04-16T09:49:39;20.00;60.30
71039;SHT30;58692;43.212;27.908;2023-04-16T09:52:11;19.86;60.97
71039;SHT30;58692;43.212;27.908;2023-04-16T09:54:37;19.53;62.10
71039;SHT30;58692;43.212;27.908;2023-04-16T09:57:07;19.20;62.84
71039;SHT30;58692;43.212;27.908;2023-04-16T09:59:34;19.07;63.63
71039;SHT30;58692;43.212;27.908;2023-04-16T10:02:00;19.08;63.57
71039;SHT30;58692;43.212;27.908;2023-04-16T10:04:26;19.28;63.04
71039;SHT30;58692;43.212;27.908;2023-04-16T10:07:07;18.45;65.74
71039;SHT30;58692;43.212;27.908;2023-04-16T10:09:40;18.36;65.99
71039;SHT30;58692;43.212;27.908;2023-04-16T10:12:06;18.60;65.68
71039;SHT30;58692;43.212;27.908;2023-04-16T10:14:32;18.80;64.60
71039;SHT30;58692;43.212;27.908;2023-04-16T10:16:58;18.72;65.19
71039;SHT30;58692;43.212;27.908;2023-04-16T10:19:25;18.48;65.83
71039;SHT30;58692;43.212;27.908;2023-04-16T10:21:52;18.35;66.99
71039;SHT30;58692;43.212;27.908;2023-04-16T10:24:17;18.63;65.09
71039;SHT30;58692;43.212;27.908;2023-04-16T10:26:43;18.55;65.93
71039;SHT30;58692;43.212;27.908;2023-04-16T10:29:11;18.18;66.93
71039;SHT30;58692;43.212;27.908;2023-04-16T10:31:37;18.29;66.68
71039;SHT30;58692;43.212;27.908;2023-04-16T10:34:04;18.21;66.09
71039;SHT30;58692;43.212;27.908;2023-04-16T10:36:35;17.66;67.56
71039;SHT30;58692;43.212;27.908;2023-04-16T10:39:00;16.89;70.65
71039;SHT30;58692;43.212;27.908;2023-04-16T10:41:27;16.45;72.39
71039;SHT30;58692;43.212;27.908;2023-04-16T10:44:03;16.11;73.50
71039;SHT30;58692;43.212;27.908;2023-04-16T10:54:21;16.15;72.97
71039;SHT30;58692;43.212;27.908;2023-04-16T10:56:49;16.42;72.45
71039;SHT30;58692;43.212;27.908;2023-04-16T10:59:17;16.66;71.66
71039;SHT30;58692;43.212;27.908;2023-04-16T11:01:45;17.10;70.57
71039;SHT30;58692;43.212;27.908;2023-04-16T11:04:29;18.22;67.81
71039;SHT30;58692;43.212;27.908;2023-04-16T11:09:59;19.03;64.24
71039;SHT30;58692;43.212;27.908;2023-04-16T11:12:36;19.32;63.62
71039;SHT30;58692;43.212;27.908;2023-04-16T11:15:03;19.47;63.20
71039;SHT30;58692;43.212;27.908;2023-04-16T11:17:36;20.08;61.11
71039;SHT30;58692;43.212;27.908;2023-04-16T11:20:02;19.68;62.35
71039;SHT30;58692;43.212;27.908;2023-04-16T11:22:29;19.21;63.52
71039;SHT30;58692;43.212;27.908;2023-04-16T11:24:55;19.26;63.36
71039;SHT30;58692;43.212;27.908;2023-04-16T11:27:22;19.64;62.37
71039;SHT30;58692;43.212;27.908;2023-04-16T11:29:56;19.35;62.64
71039;SHT30;58692;43.212;27.908;2023-04-16T11:32:23;19.02;64.29
71039;SHT30;58692;43.212;27.908;2023-04-16T11:34:48;18.96;64.09
71039;SHT30;58692;43.212;27.908;2023-04-16T11:37:14;18.19;66.17
71039;SHT30;58692;43.212;27.908;2023-04-16T11:39:47;17.98;67.38
71039;SHT30;58692;43.212;27.908;2023-04-16T11:42:18;18.57;66.11
71039;SHT30;58692;43.212;27.908;2023-04-16T11:44:44;19.54;63.74
71039;SHT30;58692;43.212;27.908;2023-04-16T11:47:09;19.34;63.08
71039;SHT30;58692;43.212;27.908;2023-04-16T11:49:38;18.66;65.48
71039;SHT30;58692;43.212;27.908;2023-04-16T11:52:03;19.83;62.65
71039;SHT30;58692;43.212;27.908;2023-04-16T11:54:29;19.32;63.64
71039;SHT30;58692;43.212;27.908;2023-04-16T11:56:58;19.75;63.33
71039;SHT30;58692;43.212;27.908;2023-04-16T11:59:25;19.93;62.22
71039;SHT30;58692;43.212;27.908;2023-04-16T12:01:53;19.02;64.70
71039;SHT30;58692;43.212;27.908;2023-04-16T12:04:21;19.06;64.87
71039;SHT30;58692;43.212;27.908;2023-04-16T12:09:29;19.20;63.54
71039;SHT30;58692;43.212;27.908;2023-04-16T12:11:55;19.18;64.09
71039;SHT30;58692;43.212;27.908;2023-04-16T12:14:21;18.13;67.34
71039;SHT30;58692;43.212;27.908;2023-04-16T12:16:47;18.28;66.83
71039;SHT30;58692;43.212;27.908;2023-04-16T12:19:13;18.09;67.12
71039;SHT30;58692;43.212;27.908;2023-04-16T12:21:41;18.67;65.75
71039;SHT30;58692;43.212;27.908;2023-04-16T12:24:09;18.24;67.11
71039;SHT30;58692;43.212;27.908;2023-04-16T12:26:45;17.67;68.60
71039;SHT30;58692;43.212;27.908;2023-04-16T12:29:21;17.71;69.12
71039;SHT30;58692;43.212;27.908;2023-04-16T12:31:49;17.69;69.54
71039;SHT30;58692;43.212;27.908;2023-04-16T12:34:15;17.41;70.07
71039;SHT30;58692;43.212;27.908;2023-04-16T12:36:42;16.68;72.29
71039;SHT30;58692;43.212;27.908;2023-04-16T12:39:08;16.69;72.21
71039;SHT30;58692;43.212;27.908;2023-04-16T12:41:37;16.59;72.59
71039;SHT30;58692;43.212;27.908;2023-04-16T12:44:07;16.55;73.08
71039;SHT30;58692;43.212;27.908;2023-04-16T12:46:38;16.90;72.01
71039;SHT30;58692;43.212;27.908;2023-04-16T12:49:04;17.24;71.33
71039;SHT30;58692;43.212;27.908;2023-04-16T12:51:30;17.00;72.08
71039;SHT30;58692;43.212;27.908;2023-04-16T12:53:56;16.79;72.00
71039;SHT30;58692;43.212;27.908;2023-04-16T12:56:21;16.66;72.89
71039;SHT30;58692;43.212;27.908;2023-04-16T12:58:47;16.79;72.28
71039;SHT30;58692;43.212;27.908;2023-04-16T13:01:17;17.13;71.45
71039;SHT30;58692;43.212;27.908;2023-04-16T13:03:43;17.37;70.85
71039;SHT30;58692;43.212;27.908;2023-04-16T13:06:09;17.41;70.55
71039;SHT30;58692;43.212;27.908;2023-04-16T13:08:35;17.57;70.25
71039;SHT30;58692;43.212;27.908;2023-04-16T13:11:02;17.37;70.64
71039;SHT30;58692;43.212;27.908;2023-04-16T13:13:28;17.44;70.27
71039;SHT30;58692;43.212;27.908;2023-04-16T13:15:53;17.30;70.91
71039;SHT30;58692;43.212;27.908;2023-04-16T13:18:18;16.85;72.29
71039;SHT30;58692;43.212;27.908;2023-04-16T13:20:44;16.32;73.88
71039;SHT30;58692;43.212;27.908;2023-04-16T13:23:10;16.03;75.74
71039;SHT30;58692;43.212;27.908;2023-04-16T13:25:36;15.62;77.05
71039;SHT30;58692;43.212;27.908;2023-04-16T13:28:01;15.54;77.34
71039;SHT30;58692;43.212;27.908;2023-04-16T13:30:27;15.26;77.83
71039;SHT30;58692;43.212;27.908;2023-04-16T13:32:54;15.33;78.59
71039;SHT30;58692;43.212;27.908;2023-04-16T13:35:20;15.60;77.66
71039;SHT30;58692;43.212;27.908;2023-04-16T13:37:45;15.54;77.08
71039;SHT30;58692;43.212;27.908;2023-04-16T13:40:11;15.60;77.11
71039;SHT30;58692;43.212;27.908;2023-04-16T13:42:36;15.54;77.04
71039;SHT30;58692;43.212;27.908;2023-04-16T13:45:02;15.50;77.55
71039;SHT30;58692;43.212;27.908;2023-04-16T13:47:28;15.50;77.38
71039;SHT30;58692;43.212;27.908;2023-04-16T13:49:53;15.32;77.84
71039;SHT30;58692;43.212;27.908;2023-04-16T13:52:19;15.19;78.57
71039;SHT30;58692;43.212;27.908;2023-04-16T13:54:44;15.08;79.04
71039;SHT30;58692;43.212;27.908;2023-04-16T13:57:10;15.33;78.46
71039;SHT30;58692;43.212;27.908;2023-04-16T13:59:36;15.25;78.70
71039;SHT30;58692;43.212;27.908;2023-04-16T14:02:02;15.23;78.79
71039;SHT30;58692;43.212;27.908;2023-04-16T14:04:29;15.01;79.52
71039;SHT30;58692;43.212;27.908;2023-04-16T14:06:55;14.96;79.94
71039;SHT30;58692;43.212;27.908;2023-04-16T14:09:21;14.92;80.29
71039;SHT30;58692;43.212;27.908;2023-04-16T14:11:46;15.11;79.75
71039;SHT30;58692;43.212;27.908;2023-04-16T14:14:12;14.98;79.71
71039;SHT30;58692;43.212;27.908;2023-04-16T14:16:37;14.93;79.86
71039;SHT30;58692;43.212;27.908;2023-04-16T14:19:03;14.74;80.42
71039;SHT30;58692;43.212;27.908;2023-04-16T14:21:29;14.44;81.88
71039;SHT30;58692;43.212;27.908;2023-04-16T14:23:55;14.65;81.30
71039;SHT30;58692;43.212;27.908;2023-04-16T14:26:21;14.51;81.92
71039;SHT30;58692;43.212;27.908;2023-04-16T14:28:46;14.72;81.53
71039;SHT30;58692;43.212;27.908;2023-04-16T14:31:12;14.88;80.60
71039;SHT30;58692;43.212;27.908;2023-04-16T14:33:37;14.63;81.62
71039;SHT30;58692;43.212;27.908;2023-04-16T14:36:03;14.41;82.58
71039;SHT30;58692;43.212;27.908;2023-04-16T14:38:29;14.40;82.86
71039;SHT30;58692;43.212;27.908;2023-04-16T14:40:55;14.26;83.19
71039;SHT30;58692;43.212;27.908;2023-04-16T14:43:21;14.27;83.37
71039;SHT30;58692;43.212;27.908;2023-04-16T14:45:46;14.12;83.65
71039;SHT30;58692;43.212;27.908;2023-04-16T14:48:12;14.30;83.29
71039;SHT30;58692;43.212;27.908;2023-04-16T14:50:37;14.30;83.56
71039;SHT30;58692;43.212;27.908;2023-04-16T14:53:07;14.37;83.62
71039;SHT30;58692;43.212;27.908;2023-04-16T14:55:33;14.40;83.20
71039;SHT30;58692;43.212;27.908;2023-04-16T14:57:58;14.44;82.67
71039;SHT30;58692;43.212;27.908;2023-04-16T15:00:24;14.40;82.89
71039;SHT30;58692;43.212;27.908;2023-04-16T15:02:50;14.38;82.82
71039;SHT30;58692;43.212;27.908;2023-04-16T15:05:15;14.42;82.68
71039;SHT30;58692;43.212;27.908;2023-04-16T15:07:41;14.58;82.51
71039;SHT30;58692;43.212;27.908;2023-04-16T15:10:07;14.50;82.31
71039;SHT30;58692;43.212;27.908;2023-04-16T15:12:33;14.56;82.07
71039;SHT30;58692;43.212;27.908;2023-04-16T15:14:58;14.74;81.82
71039;SHT30;58692;43.212;27.908;2023-04-16T15:17:25;14.84;81.50
71039;SHT30;58692;43.212;27.908;2023-04-16T15:19:50;14.99;80.83
71039;SHT30;58692;43.212;27.908;2023-04-16T15:22:17;15.03;80.87